createdAt,value
2023-11-09T00:01:10.901Z,1.42
2023-11-09T00:03:38.177Z,2.28
2023-11-09T00:06:05.782Z,2.20
2023-11-09T00:08:33.071Z,1.42
2023-11-09T00:11:00.882Z,1.55
2023-11-09T00:13:28.214Z,1.80
2023-11-09T00:15:57.009Z,1.15
2023-11-09T00:18:24.339Z,1.10
2023-11-09T00:20:53.356Z,1.38
2023-11-09T00:23:21.284Z,1.25
2023-11-09T00:25:48.867Z,1.52
2023-11-09T00:28:17.331Z,1.40
2023-11-09T00:30:45.314Z,2.17
2023-11-09T00:33:12.643Z,1.20
2023-11-09T00:35:40.764Z,1.38
2023-11-09T00:38:09.222Z,2.00
2023-11-09T00:40:37.120Z,1.17
2023-11-09T00:43:04.389Z,1.65
2023-11-09T00:45:35.654Z,1.88
2023-11-09T00:48:06.450Z,3.22
2023-11-09T00:50:33.930Z,1.80
2023-11-09T00:53:01.157Z,1.70
2023-11-09T00:55:28.434Z,1.60
2023-11-09T00:57:55.701Z,2.25
2023-11-09T01:00:22.975Z,1.52
2023-11-09T01:02:52.293Z,1.58
2023-11-09T01:05:19.811Z,1.58
2023-11-09T01:07:47.946Z,1.50
2023-11-09T01:10:15.377Z,1.30
2023-11-09T01:12:42.650Z,1.45
2023-11-09T01:15:10.080Z,2.30
2023-11-09T01:17:41.358Z,1.52
2023-11-09T01:20:09.968Z,1.55
2023-11-09T01:22:37.206Z,1.70
2023-11-09T01:25:04.650Z,1.00
2023-11-09T01:27:31.858Z,1.15
2023-11-09T01:29:59.170Z,1.45
2023-11-09T01:32:27.059Z,1.23
2023-11-09T01:34:54.404Z,1.02
2023-11-09T01:37:21.717Z,2.35
2023-11-09T01:39:49.219Z,1.55
2023-11-09T01:42:16.605Z,1.02
2023-11-09T01:44:43.832Z,1.20
2023-11-09T01:47:11.491Z,1.42
2023-11-09T01:49:40.460Z,1.00
2023-11-09T01:52:08.825Z,1.60
2023-11-09T01:54:37.005Z,2.08
2023-11-09T01:57:05.847Z,1.52
2023-11-09T01:59:34.900Z,0.90
2023-11-09T02:02:03.486Z,1.00
2023-11-09T02:04:30.986Z,1.30
2023-11-09T02:06:58.756Z,1.42
2023-11-09T02:09:28.235Z,0.95
2023-11-09T02:11:56.074Z,1.20
2023-11-09T02:14:23.587Z,1.00
2023-11-09T02:16:51.108Z,1.10
2023-11-09T02:19:20.485Z,1.27
2023-11-09T02:21:53.787Z,1.27
2023-11-09T02:24:21.583Z,1.52
2023-11-09T02:26:49.213Z,1.35
2023-11-09T02:29:16.784Z,1.92
2023-11-09T02:31:44.060Z,0.80
2023-11-09T02:34:11.421Z,1.33
2023-11-09T02:36:39.756Z,1.30
2023-11-09T02:39:06.990Z,1.00
2023-11-09T02:41:34.233Z,0.93
2023-11-09T02:44:01.499Z,1.20
2023-11-09T02:46:28.746Z,1.00
2023-11-09T02:48:55.987Z,0.85
2023-11-09T02:51:23.381Z,0.93
2023-11-09T02:53:50.604Z,1.25
2023-11-09T02:56:17.896Z,1.25
2023-11-09T02:58:47.203Z,1.40
2023-11-09T03:01:14.767Z,0.80
2023-11-09T03:03:41.980Z,0.95
2023-11-09T03:06:09.626Z,1.20
2023-11-09T03:08:36.885Z,1.15
2023-11-09T03:11:04.588Z,2.05
2023-11-09T03:13:35.353Z,1.77
2023-11-09T03:16:02.748Z,1.30
2023-11-09T03:18:29.983Z,1.98
2023-11-09T03:20:57.550Z,3.22
2023-11-09T03:23:24.965Z,1.23
2023-11-09T03:25:52.231Z,1.67
2023-11-09T03:28:19.612Z,0.93
2023-11-09T03:30:46.914Z,1.50
2023-11-09T03:33:15.367Z,1.60
2023-11-09T03:35:42.714Z,1.17
2023-11-09T03:38:09.933Z,1.52
2023-11-09T03:40:37.273Z,1.08
2023-11-09T03:43:04.772Z,1.20
2023-11-09T03:45:33.186Z,1.65
2023-11-09T03:48:00.654Z,1.17
2023-11-09T03:50:28.650Z,1.30
2023-11-09T03:52:55.866Z,2.47
2023-11-09T03:55:23.113Z,1.00
2023-11-09T03:57:50.371Z,1.17
2023-11-09T04:00:19.808Z,1.30
2023-11-09T04:02:47.112Z,1.17
2023-11-09T04:05:14.570Z,1.00
2023-11-09T04:07:45.913Z,1.23
2023-11-09T04:10:15.473Z,2.83
2023-11-09T04:12:44.707Z,2.28
2023-11-09T04:15:12.501Z,1.30
2023-11-09T04:17:39.876Z,1.38
2023-11-09T04:20:08.872Z,1.10
2023-11-09T04:22:36.562Z,0.90
2023-11-09T04:25:04.833Z,0.90
2023-11-09T04:27:35.636Z,1.55
2023-11-09T04:30:03.743Z,1.52
2023-11-09T04:32:31.366Z,1.58
2023-11-09T04:34:58.696Z,1.52
2023-11-09T04:37:27.548Z,1.83
2023-11-09T04:39:59.797Z,1.63
2023-11-09T04:42:30.723Z,1.98
2023-11-09T04:44:58.465Z,1.45
2023-11-09T04:47:26.947Z,1.42
2023-11-09T04:50:02.194Z,1.30
2023-11-09T04:52:32.984Z,1.45
2023-11-09T04:55:12.311Z,1.55
2023-11-09T04:57:59.625Z,1.38
2023-11-09T05:00:50.484Z,2.38
2023-11-09T05:03:40.970Z,1.48
2023-11-09T05:06:26.967Z,1.20
2023-11-09T05:08:54.213Z,1.50
2023-11-09T05:11:21.418Z,1.30
2023-11-09T05:13:48.616Z,1.13
2023-11-09T05:16:15.881Z,1.30
2023-11-09T05:18:44.935Z,1.27
2023-11-09T05:21:12.250Z,1.40
2023-11-09T05:23:39.446Z,0.90
2023-11-09T05:26:07.725Z,0.98
2023-11-09T05:28:35.946Z,1.10
2023-11-09T05:31:03.280Z,1.13
2023-11-09T05:33:30.573Z,1.05
2023-11-09T05:35:58.952Z,1.55
2023-11-09T05:38:26.220Z,1.65
2023-11-09T05:40:53.697Z,2.45
2023-11-09T05:43:21.314Z,1.00
2023-11-09T05:45:48.663Z,1.60
2023-11-09T05:48:16.503Z,1.08
2023-11-09T05:50:43.798Z,1.42
2023-11-09T05:53:11.360Z,1.27
2023-11-09T05:55:38.770Z,1.60
2023-11-09T05:58:06.175Z,2.17
2023-11-09T06:00:33.508Z,1.13
2023-11-09T06:03:00.830Z,1.30
2023-11-09T06:05:28.409Z,1.17
2023-11-09T06:07:55.623Z,1.15
2023-11-09T06:10:22.975Z,1.30
2023-11-09T06:12:50.417Z,1.25
2023-11-09T06:15:17.856Z,0.90
2023-11-09T06:17:45.341Z,0.90
2023-11-09T06:20:21.463Z,1.00
2023-11-09T06:22:50.017Z,0.85
2023-11-09T06:25:17.434Z,1.10
2023-11-09T06:27:44.766Z,1.10
2023-11-09T06:30:12.170Z,1.05
2023-11-09T06:32:41.498Z,1.77
2023-11-09T06:35:14.837Z,1.95
2023-11-09T06:37:44.308Z,1.00
2023-11-09T06:40:13.455Z,1.35
2023-11-09T06:42:41.080Z,1.10
2023-11-09T06:45:08.524Z,1.40
2023-11-09T06:47:36.856Z,1.55
2023-11-09T06:50:04.748Z,1.25
2023-11-09T06:52:32.018Z,1.00
2023-11-09T06:55:01.700Z,1.10
2023-11-09T06:57:29.308Z,1.33
2023-11-09T06:59:56.488Z,1.38
2023-11-09T07:02:23.724Z,1.63
2023-11-09T07:04:51.112Z,0.82
2023-11-09T07:07:19.533Z,0.98
2023-11-09T07:09:48.314Z,0.80
2023-11-09T07:12:15.578Z,1.40
2023-11-09T07:14:42.704Z,1.10
2023-11-09T07:17:09.915Z,1.60
2023-11-09T07:19:37.228Z,0.90
2023-11-09T07:22:08.179Z,0.82
2023-11-09T07:24:38.831Z,0.80
2023-11-09T07:27:08.352Z,1.27
2023-11-09T07:29:36.633Z,0.93
2023-11-09T07:32:06.273Z,0.57
2023-11-09T07:34:33.568Z,0.50
2023-11-09T07:37:07.925Z,0.77
2023-11-09T07:39:35.950Z,0.60
2023-11-09T07:42:05.625Z,0.88
2023-11-09T07:44:33.641Z,0.73
2023-11-09T07:47:00.864Z,0.70
2023-11-09T07:49:31.722Z,0.70
2023-11-09T07:52:05.241Z,0.70
2023-11-09T07:54:33.321Z,1.60
2023-11-09T07:57:02.654Z,0.70
2023-11-09T07:59:29.899Z,0.70
2023-11-09T08:02:01.761Z,0.57
2023-11-09T08:04:30.046Z,0.65
2023-11-09T08:06:57.284Z,1.00
2023-11-09T08:09:24.455Z,1.25
2023-11-09T08:11:51.609Z,0.77
2023-11-09T08:14:18.872Z,0.55
2023-11-09T08:16:46.306Z,0.80
2023-11-09T08:19:13.950Z,0.90
2023-11-09T08:21:41.229Z,0.73
2023-11-09T08:24:09.715Z,0.55
2023-11-09T08:26:37.019Z,1.02
2023-11-09T08:29:05.813Z,0.68
2023-11-09T08:31:35.815Z,0.50
2023-11-09T08:34:03.077Z,0.52
2023-11-09T08:36:31.053Z,0.50
2023-11-09T08:38:58.682Z,0.40
2023-11-09T08:41:27.861Z,0.88
2023-11-09T08:43:55.222Z,0.50
2023-11-09T08:46:23.673Z,1.70
2023-11-09T08:48:50.906Z,0.65
2023-11-09T08:51:18.173Z,0.60
2023-11-09T08:53:46.802Z,0.60
2023-11-09T08:56:15.857Z,0.60
2023-11-09T08:58:43.197Z,0.90
2023-11-09T09:01:20.001Z,0.50
2023-11-09T09:03:51.425Z,0.60
2023-11-09T09:06:19.455Z,1.27
2023-11-09T09:08:48.102Z,0.70
2023-11-09T09:11:16.289Z,0.60
2023-11-09T09:13:43.900Z,0.60
2023-11-09T09:16:17.069Z,0.55
2023-11-09T09:18:47.760Z,0.60
2023-11-09T09:21:16.695Z,0.57
2023-11-09T09:23:44.073Z,0.60
2023-11-09T09:26:15.619Z,0.65
2023-11-09T09:28:50.182Z,1.30
2023-11-09T09:31:22.099Z,0.77
2023-11-09T09:34:09.201Z,0.50
2023-11-09T09:36:41.388Z,0.80
2023-11-09T09:39:09.403Z,0.95
2023-11-09T09:41:51.291Z,0.40
2023-11-09T09:44:20.137Z,1.30
2023-11-09T09:46:49.451Z,0.50
2023-11-09T09:49:18.501Z,0.50
2023-11-09T09:51:45.789Z,0.60
2023-11-09T09:54:14.057Z,0.90
2023-11-09T09:56:42.188Z,0.50
2023-11-09T09:59:13.084Z,0.65
2023-11-09T10:01:49.196Z,0.52
2023-11-09T10:04:17.111Z,0.40
2023-11-09T10:06:46.972Z,0.50
2023-11-09T10:09:16.372Z,0.50
2023-11-09T10:11:44.214Z,1.50
2023-11-09T10:14:17.361Z,0.43
2023-11-09T10:16:48.610Z,0.60
2023-11-09T10:19:17.473Z,0.80
2023-11-09T10:21:48.022Z,0.50
2023-11-09T10:24:15.787Z,0.88
2023-11-09T10:26:46.964Z,0.45
2023-11-09T10:29:21.014Z,1.00
2023-11-09T10:31:48.608Z,0.50
2023-11-09T10:34:17.002Z,0.50
2023-11-09T10:36:48.767Z,0.50
2023-11-09T10:39:24.959Z,1.25
2023-11-09T10:42:00.333Z,0.67
2023-11-09T10:44:31.414Z,0.50
2023-11-09T10:47:04.106Z,0.50
2023-11-09T10:49:38.435Z,0.43
2023-11-09T10:52:10.967Z,0.40
2023-11-09T10:54:39.166Z,0.50
2023-11-09T10:57:11.053Z,0.40
2023-11-09T10:59:42.825Z,0.55
2023-11-09T11:02:17.870Z,0.52
2023-11-09T11:04:51.750Z,0.70
2023-11-09T11:07:26.863Z,0.80
2023-11-09T11:09:57.546Z,0.50
2023-11-09T11:12:25.232Z,0.57
2023-11-09T11:14:54.971Z,0.52
2023-11-09T11:17:32.744Z,0.60
2023-11-09T11:20:14.187Z,0.45
2023-11-09T11:22:56.857Z,0.40
2023-11-09T11:25:40.045Z,0.40
2023-11-09T11:28:12.478Z,0.40
2023-11-09T11:30:41.297Z,0.50
2023-11-09T11:33:13.313Z,0.60
2023-11-09T11:35:49.619Z,0.57
2023-11-09T11:38:30.449Z,0.45
2023-11-09T11:41:07.118Z,0.45
2023-11-09T11:43:38.514Z,0.68
2023-11-09T11:46:15.136Z,0.40
2023-11-09T11:48:44.026Z,0.50
2023-11-09T11:51:12.900Z,0.70
2023-11-09T11:53:45.116Z,0.45
2023-11-09T11:56:14.953Z,0.60
2023-11-09T11:58:48.348Z,0.70
2023-11-09T12:01:31.586Z,0.60
2023-11-09T12:04:07.991Z,0.55
2023-11-09T12:06:39.066Z,0.47
2023-11-09T12:09:11.873Z,0.50
2023-11-09T12:11:51.392Z,0.73
2023-11-09T12:14:21.332Z,0.40
2023-11-09T12:16:49.880Z,0.40
2023-11-09T12:19:17.895Z,0.50
2023-11-09T12:21:48.718Z,0.55
2023-11-09T12:24:24.362Z,0.60
2023-11-09T12:27:10.108Z,1.00
2023-11-09T12:29:39.867Z,0.47
2023-11-09T12:32:08.353Z,0.50
2023-11-09T12:34:40.908Z,0.60
2023-11-09T12:37:15.854Z,0.75
2023-11-09T12:39:44.691Z,0.65
2023-11-09T12:42:21.895Z,0.90
2023-11-09T12:44:49.134Z,1.58
2023-11-09T12:47:17.781Z,0.60
2023-11-09T12:49:47.180Z,0.60
2023-11-09T12:52:17.887Z,0.82
2023-11-09T12:54:46.674Z,0.50
2023-11-09T12:57:18.952Z,0.60
2023-11-09T12:59:47.614Z,0.50
2023-11-09T13:02:29.957Z,0.85
2023-11-09T13:04:59.065Z,0.43
2023-11-09T13:07:27.717Z,0.50
2023-11-09T13:10:20.749Z,0.50
2023-11-09T13:12:49.852Z,0.50
2023-11-09T13:15:43.129Z,0.77
2023-11-09T13:18:14.054Z,0.88
2023-11-09T13:20:42.132Z,0.70
2023-11-09T13:23:13.726Z,0.63
2023-11-09T13:25:51.393Z,0.60
2023-11-09T13:28:19.558Z,0.50
2023-11-09T13:30:55.692Z,0.65
2023-11-09T13:33:38.293Z,0.60
2023-11-09T13:36:14.865Z,0.40
2023-11-09T13:38:58.293Z,0.85
2023-11-09T13:41:40.561Z,0.60
2023-11-09T13:44:08.659Z,0.68
2023-11-09T13:46:44.151Z,0.60
2023-11-09T13:49:17.951Z,0.70
2023-11-09T13:52:07.144Z,0.68
2023-11-09T13:54:37.618Z,0.52
2023-11-09T13:57:14.791Z,0.60
2023-11-09T13:59:54.647Z,0.75
2023-11-09T14:02:23.598Z,0.60
2023-11-09T14:05:10.414Z,0.60
2023-11-09T14:07:43.212Z,0.50
2023-11-09T14:10:16.270Z,0.80
2023-11-09T14:12:44.822Z,0.60
2023-11-09T14:15:24.960Z,0.95
2023-11-09T14:17:54.271Z,0.90
2023-11-09T14:20:35.447Z,0.70
2023-11-09T14:23:07.178Z,0.60
2023-11-09T14:25:38.338Z,1.13
2023-11-09T14:28:06.094Z,1.27
2023-11-09T14:30:33.769Z,0.85
2023-11-09T14:33:02.573Z,0.90
2023-11-09T14:35:34.387Z,0.80
2023-11-09T14:38:06.623Z,0.93
2023-11-09T14:40:37.678Z,0.90
2023-11-09T14:43:10.919Z,0.70
2023-11-09T14:45:42.983Z,0.85
2023-11-09T14:48:12.459Z,0.77
2023-11-09T14:50:41.378Z,0.77
2023-11-09T14:53:15.309Z,0.50
2023-11-09T14:55:57.959Z,0.45
2023-11-09T14:58:32.149Z,1.45
2023-11-09T15:01:04.739Z,0.40
2023-11-09T15:03:34.862Z,0.70
2023-11-09T15:06:13.170Z,0.63
2023-11-09T15:08:41.580Z,0.60
2023-11-09T15:11:14.732Z,0.50
2023-11-09T15:13:45.958Z,0.70
2023-11-09T15:16:19.959Z,0.65
2023-11-09T15:18:48.919Z,0.50
2023-11-09T15:21:17.784Z,0.77
2023-11-09T15:23:45.554Z,0.32
2023-11-09T15:26:13.832Z,1.48
2023-11-09T15:28:41.771Z,0.60
2023-11-09T15:31:09.201Z,0.50
2023-11-09T15:33:36.603Z,0.50
2023-11-09T15:36:05.262Z,0.45
2023-11-09T15:38:33.117Z,0.63
2023-11-09T15:41:17.878Z,0.63
2023-11-09T15:43:50.160Z,0.60
2023-11-09T15:46:17.631Z,0.50
2023-11-09T15:48:47.567Z,0.50
2023-11-09T15:51:17.700Z,0.40
2023-11-09T15:53:45.045Z,0.35
2023-11-09T15:56:13.614Z,0.50
2023-11-09T15:58:43.101Z,0.60
2023-11-09T16:01:11.553Z,0.40
2023-11-09T16:03:41.113Z,0.57
2023-11-09T16:06:10.241Z,0.70
2023-11-09T16:08:37.878Z,0.63
2023-11-09T16:11:05.204Z,0.40
2023-11-09T16:13:32.489Z,0.70
2023-11-09T16:15:59.730Z,0.60
2023-11-09T16:18:29.579Z,0.60
2023-11-09T16:20:56.977Z,0.60
2023-11-09T16:23:24.165Z,0.90
2023-11-09T16:25:51.414Z,0.68
2023-11-09T16:28:22.280Z,0.77
2023-11-09T16:30:50.904Z,0.50
2023-11-09T16:33:18.750Z,0.60
2023-11-09T16:35:46.817Z,0.85
2023-11-09T16:38:14.402Z,0.73
2023-11-09T16:40:41.896Z,0.60
2023-11-09T16:43:10.325Z,0.55
2023-11-09T16:45:37.526Z,0.70
2023-11-09T16:48:05.598Z,0.77
2023-11-09T16:50:33.724Z,0.60
2023-11-09T16:53:01.510Z,0.55
2023-11-09T16:55:29.964Z,0.90
2023-11-09T16:57:57.210Z,0.75
2023-11-09T17:00:25.023Z,0.60
2023-11-09T17:02:52.955Z,0.73
2023-11-09T17:05:22.041Z,0.52
2023-11-09T17:07:49.497Z,1.08
2023-11-09T17:10:16.944Z,1.30
2023-11-09T17:12:44.454Z,0.77
2023-11-09T17:15:13.593Z,1.05
2023-11-09T17:17:43.152Z,1.30
2023-11-09T17:20:13.887Z,1.17
2023-11-09T17:22:45.900Z,0.90
2023-11-09T17:25:14.975Z,0.90
2023-11-09T17:27:43.872Z,0.85
2023-11-09T17:30:12.945Z,1.20
2023-11-09T17:32:41.459Z,1.00
2023-11-09T17:35:09.872Z,1.88
2023-11-09T17:37:38.058Z,1.50
2023-11-09T17:40:12.317Z,0.90
2023-11-09T17:45:08.349Z,1.05
2023-11-09T17:47:35.870Z,1.25
2023-11-09T17:50:03.264Z,0.93
2023-11-09T17:52:31.092Z,0.93
2023-11-09T17:54:58.266Z,0.75
2023-11-09T17:57:25.740Z,2.95
2023-11-09T17:59:52.949Z,1.27
2023-11-09T18:02:20.253Z,1.80
2023-11-09T18:04:47.569Z,1.33
2023-11-09T18:07:16.085Z,1.35
2023-11-09T18:09:44.908Z,1.55
2023-11-09T18:12:14.579Z,1.23
2023-11-09T18:14:44.792Z,1.65
2023-11-09T18:20:01.762Z,1.38
2023-11-09T18:22:29.085Z,0.95
2023-11-09T18:24:56.336Z,1.65
2023-11-09T18:27:23.539Z,1.92
2023-11-09T18:29:51.782Z,1.50
2023-11-09T18:32:19.833Z,1.30
2023-11-09T18:34:47.081Z,1.42
2023-11-09T18:37:14.356Z,1.65
2023-11-09T18:39:42.086Z,1.30
2023-11-09T18:42:09.485Z,0.90
2023-11-09T18:44:36.643Z,1.10
2023-11-09T18:47:08.462Z,1.10
2023-11-09T18:52:07.264Z,1.63
2023-11-09T18:54:34.453Z,1.95
2023-11-09T18:57:01.717Z,2.13
2023-11-09T18:59:28.906Z,2.08
2023-11-09T19:01:56.158Z,1.45
2023-11-09T19:06:53.924Z,1.35
2023-11-09T19:09:22.504Z,1.55
2023-11-09T19:11:49.682Z,1.50
2023-11-09T19:14:16.958Z,2.25
2023-11-09T19:16:44.808Z,3.08
2023-11-09T19:19:12.124Z,2.33
2023-11-09T19:24:09.760Z,1.42
2023-11-09T19:26:38.656Z,1.40
2023-11-09T19:29:07.029Z,1.35
2023-11-09T19:31:34.545Z,1.85
2023-11-09T19:34:02.478Z,1.67
2023-11-09T19:36:29.656Z,1.23
2023-11-09T19:38:58.207Z,1.38
2023-11-09T19:41:25.662Z,1.10
2023-11-09T19:43:52.925Z,2.00
2023-11-09T19:46:21.173Z,1.42
2023-11-09T19:48:48.512Z,1.15
2023-11-09T19:51:15.867Z,1.48
2023-11-09T19:53:43.138Z,1.55
2023-11-09T19:56:10.375Z,1.27
2023-11-09T19:58:37.569Z,1.23
2023-11-09T20:01:05.107Z,1.05
2023-11-09T20:03:32.645Z,1.38
2023-11-09T20:05:59.978Z,1.20
2023-11-09T20:08:27.296Z,1.23
2023-11-09T20:10:54.701Z,1.20
2023-11-09T20:13:22.033Z,2.28
2023-11-09T20:15:49.285Z,1.90
2023-11-09T20:18:16.576Z,1.10
2023-11-09T20:20:43.899Z,1.27
2023-11-09T20:23:15.140Z,0.98
2023-11-09T20:25:44.318Z,0.82
2023-11-09T20:28:12.029Z,1.00
2023-11-09T20:30:39.215Z,0.93
2023-11-09T20:33:06.631Z,1.98
2023-11-09T20:35:37.224Z,1.17
2023-11-09T20:38:08.130Z,0.98
2023-11-09T20:40:35.720Z,0.98
2023-11-09T20:43:03.571Z,1.02
2023-11-09T20:45:30.979Z,0.90
2023-11-09T20:47:58.282Z,1.13
2023-11-09T20:50:25.701Z,1.05
2023-11-09T20:52:53.247Z,1.25
2023-11-09T20:55:23.104Z,0.93
2023-11-09T20:57:51.588Z,1.42
2023-11-09T21:00:23.905Z,0.75
2023-11-09T21:02:54.603Z,0.85
2023-11-09T21:05:23.118Z,0.80
2023-11-09T21:07:53.204Z,1.63
2023-11-09T21:10:22.201Z,0.93
2023-11-09T21:12:49.690Z,0.80
2023-11-09T21:15:16.966Z,0.60
2023-11-09T21:17:44.855Z,1.10
2023-11-09T21:20:17.192Z,1.55
2023-11-09T21:22:45.627Z,1.15
2023-11-09T21:25:15.836Z,0.93
2023-11-09T21:27:44.962Z,0.70
2023-11-09T21:30:14.594Z,1.17
2023-11-09T21:32:43.111Z,0.73
2023-11-09T21:35:15.405Z,0.73
2023-11-09T21:37:46.182Z,0.73
2023-11-09T21:40:16.109Z,1.15
2023-11-09T21:42:43.668Z,0.85
2023-11-09T21:45:15.422Z,1.00
2023-11-09T21:47:43.595Z,0.70
2023-11-09T21:50:11.935Z,1.73
2023-11-09T21:52:41.591Z,0.80
2023-11-09T21:55:10.098Z,1.30
2023-11-09T21:57:40.385Z,0.63
2023-11-09T22:00:13.210Z,0.73
2023-11-09T22:02:45.344Z,0.60
2023-11-09T22:05:12.837Z,0.65
2023-11-09T22:07:40.162Z,1.00
2023-11-09T22:10:09.014Z,0.80
2023-11-09T22:12:37.408Z,0.50
2023-11-09T22:15:05.508Z,0.70
2023-11-09T22:17:34.016Z,0.75
2023-11-09T22:20:01.230Z,0.68
2023-11-09T22:22:28.461Z,0.52
2023-11-09T22:24:55.670Z,0.70
2023-11-09T22:27:24.224Z,1.13
2023-11-09T22:29:51.583Z,0.50
2023-11-09T22:32:19.240Z,0.40
2023-11-09T22:34:46.402Z,0.93
2023-11-09T22:37:13.586Z,0.60
2023-11-09T22:39:42.884Z,0.50
2023-11-09T22:42:10.274Z,0.50
2023-11-09T22:44:37.674Z,0.52
2023-11-09T22:47:05.088Z,0.47
2023-11-09T22:49:32.637Z,0.60
2023-11-09T22:52:00.133Z,0.50
2023-11-09T22:54:27.435Z,0.70
2023-11-09T22:56:54.673Z,0.50
2023-11-09T22:59:21.941Z,0.43
2023-11-09T23:01:49.193Z,0.50
2023-11-09T23:04:16.527Z,0.70
2023-11-09T23:06:44.325Z,0.70
2023-11-09T23:09:13.693Z,0.50
2023-11-09T23:11:41.146Z,0.60
2023-11-09T23:14:08.391Z,0.60
2023-11-09T23:16:35.586Z,0.40
2023-11-09T23:19:03.247Z,0.43
2023-11-09T23:21:31.182Z,0.60
2023-11-09T23:23:58.444Z,0.50
2023-11-09T23:26:26.251Z,0.40
2023-11-09T23:28:53.637Z,0.30
2023-11-09T23:31:23.158Z,0.43
2023-11-09T23:33:50.401Z,0.60
2023-11-09T23:36:17.626Z,0.40
2023-11-09T23:38:45.359Z,0.50
2023-11-09T23:41:14.551Z,0.40
2023-11-09T23:43:41.832Z,0.85
2023-11-09T23:46:09.161Z,0.50
2023-11-09T23:48:36.595Z,0.60
2023-11-09T23:51:03.949Z,0.50
2023-11-09T23:53:33.793Z,0.80
2023-11-09T23:56:01.815Z,0.88
2023-11-09T23:58:29.023Z,0.70
